sensor_id;sensor_type;location;lat;lon;timestamp;P1;durP1;ratioP1;P2;durP2;ratioP2
5414;SDS011;2730;51.512;7.504;2022-12-07T00:09:02;51.53;;;22.65;;
5414;SDS011;2730;51.512;7.504;2022-12-07T00:11:29;48.80;;;22.02;;
5414;SDS011;2730;51.512;7.504;2022-12-07T00:13:58;47.88;;;22.25;;
5414;SDS011;2730;51.512;7.504;2022-12-07T00:16:28;58.72;;;23.50;;
5414;SDS011;2730;51.512;7.504;2022-12-07T00:18:56;46.08;;;21.92;;
5414;SDS011;2730;51.512;7.504;2022-12-07T00:21:25;49.40;;;21.73;;
5414;SDS011;2730;51.512;7.504;2022-12-07T00:23:53;47.15;;;22.80;;
5414;SDS011;2730;51.512;7.504;2022-12-07T00:26:21;53.97;;;22.40;;
5414;SDS011;2730;51.512;7.504;2022-12-07T00:28:51;49.97;;;23.40;;
5414;SDS011;2730;51.512;7.504;2022-12-07T00:31:21;54.15;;;23.80;;
5414;SDS011;2730;51.512;7.504;2022-12-07T00:33:50;43.28;;;21.30;;
5414;SDS011;2730;51.512;7.504;2022-12-07T00:36:18;46.40;;;22.02;;
5414;SDS011;2730;51.512;7.504;2022-12-07T00:38:46;50.45;;;22.90;;
5414;SDS011;2730;51.512;7.504;2022-12-07T06:01:03;38.03;;;14.35;;
5414;SDS011;2730;51.512;7.504;2022-12-07T06:03:33;33.78;;;14.40;;
5414;SDS011;2730;51.512;7.504;2022-12-07T06:06:00;31.75;;;16.10;;
5414;SDS011;2730;51.512;7.504;2022-12-07T06:08:27;33.78;;;15.55;;
5414;SDS011;2730;51.512;7.504;2022-12-07T06:10:54;49.97;;;16.75;;
5414;SDS011;2730;51.512;7.504;2022-12-07T06:13:35;29.23;;;14.40;;
5414;SDS011;2730;51.512;7.504;2022-12-07T06:16:03;37.88;;;15.35;;
5414;SDS011;2730;51.512;7.504;2022-12-07T06:18:30;32.47;;;14.18;;
5414;SDS011;2730;51.512;7.504;2022-12-07T06:20:57;32.08;;;14.50;;
5414;SDS011;2730;51.512;7.504;2022-12-07T06:23:24;41.97;;;15.68;;
5414;SDS011;2730;51.512;7.504;2022-12-07T06:25:51;37.40;;;15.82;;
5414;SDS011;2730;51.512;7.504;2022-12-07T06:28:17;32.90;;;16.42;;
5414;SDS011;2730;51.512;7.504;2022-12-07T06:30:44;33.00;;;15.00;;
5414;SDS011;2730;51.512;7.504;2022-12-07T06:33:12;26.80;;;14.20;;
5414;SDS011;2730;51.512;7.504;2022-12-07T06:35:39;29.92;;;14.15;;
5414;SDS011;2730;51.512;7.504;2022-12-07T06:38:06;27.95;;;13.98;;
5414;SDS011;2730;51.512;7.504;2022-12-07T06:40:33;30.15;;;15.25;;
5414;SDS011;2730;51.512;7.504;2022-12-07T06:42:59;26.70;;;13.20;;
5414;SDS011;2730;51.512;7.504;2022-12-07T06:45:26;30.25;;;14.00;;
5414;SDS011;2730;51.512;7.504;2022-12-07T06:47:53;27.52;;;14.02;;
5414;SDS011;2730;51.512;7.504;2022-12-07T06:50:21;35.22;;;15.10;;
5414;SDS011;2730;51.512;7.504;2022-12-07T06:52:48;32.15;;;15.18;;
5414;SDS011;2730;51.512;7.504;2022-12-07T06:55:15;38.00;;;14.65;;
5414;SDS011;2730;51.512;7.504;2022-12-07T06:57:41;35.75;;;16.20;;
5414;SDS011;2730;51.512;7.504;2022-12-07T07:00:09;27.20;;;12.80;;
5414;SDS011;2730;51.512;7.504;2022-12-07T07:02:36;31.58;;;14.15;;
5414;SDS011;2730;51.512;7.504;2022-12-07T07:05:03;31.92;;;14.73;;
5414;SDS011;2730;51.512;7.504;2022-12-07T07:07:31;28.00;;;13.43;;
5414;SDS011;2730;51.512;7.504;2022-12-07T07:09:58;32.88;;;13.05;;
5414;SDS011;2730;51.512;7.504;2022-12-07T07:12:25;40.50;;;14.60;;
5414;SDS011;2730;51.512;7.504;2022-12-07T07:14:52;29.48;;;14.18;;
5414;SDS011;2730;51.512;7.504;2022-12-07T07:17:18;30.15;;;13.65;;
5414;SDS011;2730;51.512;7.504;2022-12-07T07:19:45;30.13;;;13.85;;
5414;SDS011;2730;51.512;7.504;2022-12-07T07:22:12;27.45;;;14.63;;
5414;SDS011;2730;51.512;7.504;2022-12-07T07:24:40;38.33;;;14.45;;
5414;SDS011;2730;51.512;7.504;2022-12-07T07:27:07;27.35;;;13.30;;
5414;SDS011;2730;51.512;7.504;2022-12-07T07:29:34;31.40;;;13.77;;
5414;SDS011;2730;51.512;7.504;2022-12-07T07:32:00;26.02;;;13.60;;
5414;SDS011;2730;51.512;7.504;2022-12-07T07:34:27;38.45;;;14.00;;
5414;SDS011;2730;51.512;7.504;2022-12-07T07:36:54;32.42;;;12.48;;
5414;SDS011;2730;51.512;7.504;2022-12-07T07:39:21;26.23;;;12.65;;
5414;SDS011;2730;51.512;7.504;2022-12-07T07:41:49;28.25;;;11.40;;
5414;SDS011;2730;51.512;7.504;2022-12-07T07:44:15;24.92;;;12.85;;
5414;SDS011;2730;51.512;7.504;2022-12-07T07:46:42;26.30;;;12.00;;
5414;SDS011;2730;51.512;7.504;2022-12-07T07:49:09;27.27;;;11.40;;
5414;SDS011;2730;51.512;7.504;2022-12-07T07:51:36;26.77;;;11.55;;
5414;SDS011;2730;51.512;7.504;2022-12-07T07:54:03;29.50;;;11.20;;
5414;SDS011;2730;51.512;7.504;2022-12-07T07:56:30;24.42;;;11.32;;
5414;SDS011;2730;51.512;7.504;2022-12-07T07:58:58;23.15;;;11.10;;
5414;SDS011;2730;51.512;7.504;2022-12-07T08:01:25;21.23;;;10.88;;
5414;SDS011;2730;51.512;7.504;2022-12-07T08:03:51;27.90;;;10.32;;
5414;SDS011;2730;51.512;7.504;2022-12-07T08:06:18;28.48;;;10.82;;
5414;SDS011;2730;51.512;7.504;2022-12-07T08:08:45;23.02;;;10.57;;
5414;SDS011;2730;51.512;7.504;2022-12-07T08:11:12;26.58;;;11.38;;
5414;SDS011;2730;51.512;7.504;2022-12-07T08:13:39;29.00;;;10.95;;
5414;SDS011;2730;51.512;7.504;2022-12-07T08:16:08;35.67;;;9.55;;
5414;SDS011;2730;51.512;7.504;2022-12-07T08:18:36;21.48;;;10.70;;
5414;SDS011;2730;51.512;7.504;2022-12-07T08:21:03;18.08;;;9.80;;
5414;SDS011;2730;51.512;7.504;2022-12-07T08:23:31;23.27;;;9.82;;
5414;SDS011;2730;51.512;7.504;2022-12-07T08:25:59;25.65;;;11.52;;
5414;SDS011;2730;51.512;7.504;2022-12-07T08:28:27;25.77;;;9.70;;
5414;SDS011;2730;51.512;7.504;2022-12-07T08:30:58;20.52;;;9.57;;
5414;SDS011;2730;51.512;7.504;2022-12-07T08:33:27;25.23;;;8.70;;
5414;SDS011;2730;51.512;7.504;2022-12-07T08:35:54;22.38;;;8.75;;
5414;SDS011;2730;51.512;7.504;2022-12-07T08:38:21;27.27;;;7.97;;
5414;SDS011;2730;51.512;7.504;2022-12-07T08:40:53;17.45;;;8.25;;
5414;SDS011;2730;51.512;7.504;2022-12-07T08:43:20;18.63;;;7.20;;
5414;SDS011;2730;51.512;7.504;2022-12-07T08:45:47;17.08;;;8.05;;
5414;SDS011;2730;51.512;7.504;2022-12-07T08:48:19;17.77;;;6.93;;
5414;SDS011;2730;51.512;7.504;2022-12-07T08:50:50;15.95;;;8.43;;
5414;SDS011;2730;51.512;7.504;2022-12-07T08:53:17;15.45;;;6.63;;
5414;SDS011;2730;51.512;7.504;2022-12-07T08:55:44;12.52;;;7.13;;
5414;SDS011;2730;51.512;7.504;2022-12-07T08:58:12;16.48;;;8.13;;
5414;SDS011;2730;51.512;7.504;2022-12-07T09:00:39;18.27;;;6.93;;
5414;SDS011;2730;51.512;7.504;2022-12-07T09:03:06;12.00;;;6.80;;
5414;SDS011;2730;51.512;7.504;2022-12-07T09:05:33;14.20;;;6.82;;
5414;SDS011;2730;51.512;7.504;2022-12-07T09:08:01;17.55;;;7.18;;
5414;SDS011;2730;51.512;7.504;2022-12-07T09:10:28;14.77;;;6.78;;
5414;SDS011;2730;51.512;7.504;2022-12-07T09:12:55;17.92;;;7.50;;
5414;SDS011;2730;51.512;7.504;2022-12-07T09:15:25;17.88;;;7.75;;
5414;SDS011;2730;51.512;7.504;2022-12-07T09:17:52;14.95;;;6.75;;
5414;SDS011;2730;51.512;7.504;2022-12-07T09:20:19;19.50;;;6.72;;
5414;SDS011;2730;51.512;7.504;2022-12-07T09:22:47;18.98;;;6.53;;
5414;SDS011;2730;51.512;7.504;2022-12-07T09:25:15;15.63;;;7.00;;
5414;SDS011;2730;51.512;7.504;2022-12-07T09:27:42;18.77;;;6.53;;
5414;SDS011;2730;51.512;7.504;2022-12-07T09:30:09;11.57;;;6.40;;
5414;SDS011;2730;51.512;7.504;2022-12-07T09:32:36;13.38;;;7.28;;
5414;SDS011;2730;51.512;7.504;2022-12-07T09:35:03;10.40;;;6.38;;
5414;SDS011;2730;51.512;7.504;2022-12-07T09:37:30;13.65;;;6.55;;
5414;SDS011;2730;51.512;7.504;2022-12-07T09:40:00;12.70;;;6.68;;
5414;SDS011;2730;51.512;7.504;2022-12-07T09:42:28;17.33;;;7.22;;
5414;SDS011;2730;51.512;7.504;2022-12-07T09:45:04;12.95;;;7.82;;
5414;SDS011;2730;51.512;7.504;2022-12-07T09:47:33;17.92;;;6.63;;
5414;SDS011;2730;51.512;7.504;2022-12-07T09:50:03;18.77;;;7.43;;
5414;SDS011;2730;51.512;7.504;2022-12-07T09:52:31;14.43;;;6.97;;
5414;SDS011;2730;51.512;7.504;2022-12-07T09:54:58;19.70;;;7.50;;
5414;SDS011;2730;51.512;7.504;2022-12-07T09:57:28;14.45;;;8.15;;
5414;SDS011;2730;51.512;7.504;2022-12-07T10:00:00;17.83;;;8.13;;
5414;SDS011;2730;51.512;7.504;2022-12-07T10:02:34;14.15;;;6.75;;
5414;SDS011;2730;51.512;7.504;2022-12-07T10:05:03;19.80;;;8.02;;
5414;SDS011;2730;51.512;7.504;2022-12-07T10:07:32;24.35;;;9.15;;
5414;SDS011;2730;51.512;7.504;2022-12-07T10:09:59;16.40;;;8.38;;
5414;SDS011;2730;51.512;7.504;2022-12-07T10:12:30;16.92;;;7.75;;
5414;SDS011;2730;51.512;7.504;2022-12-07T10:15:22;12.43;;;8.05;;
5414;SDS011;2730;51.512;7.504;2022-12-07T10:17:49;16.85;;;8.25;;
5414;SDS011;2730;51.512;7.504;2022-12-07T10:20:19;18.25;;;7.72;;
5414;SDS011;2730;51.512;7.504;2022-12-07T10:22:55;12.77;;;8.77;;
5414;SDS011;2730;51.512;7.504;2022-12-07T10:25:28;13.82;;;7.85;;
5414;SDS011;2730;51.512;7.504;2022-12-07T10:28:03;17.90;;;8.65;;
5414;SDS011;2730;51.512;7.504;2022-12-07T10:30:55;19.88;;;9.13;;
5414;SDS011;2730;51.512;7.504;2022-12-07T10:33:32;18.40;;;8.80;;
5414;SDS011;2730;51.512;7.504;2022-12-07T10:36:01;17.23;;;8.70;;
5414;SDS011;2730;51.512;7.504;2022-12-07T10:38:44;22.50;;;9.52;;
5414;SDS011;2730;51.512;7.504;2022-12-07T10:41:12;18.98;;;8.93;;
5414;SDS011;2730;51.512;7.504;2022-12-07T10:43:47;27.08;;;9.45;;
5414;SDS011;2730;51.512;7.504;2022-12-07T10:46:32;17.65;;;9.95;;
5414;SDS011;2730;51.512;7.504;2022-12-07T10:49:44;19.48;;;9.88;;
5414;SDS011;2730;51.512;7.504;2022-12-07T10:52:40;15.45;;;7.85;;
5414;SDS011;2730;51.512;7.504;2022-12-07T10:55:22;16.15;;;7.55;;
5414;SDS011;2730;51.512;7.504;2022-12-07T10:57:59;14.80;;;7.13;;
5414;SDS011;2730;51.512;7.504;2022-12-07T11:00:43;22.15;;;8.57;;
5414;SDS011;2730;51.512;7.504;2022-12-07T11:03:23;16.98;;;7.88;;
5414;SDS011;2730;51.512;7.504;2022-12-07T11:06:06;18.90;;;7.03;;
5414;SDS011;2730;51.512;7.504;2022-12-07T11:08:40;11.30;;;7.20;;
5414;SDS011;2730;51.512;7.504;2022-12-07T11:11:16;15.88;;;7.32;;
5414;SDS011;2730;51.512;7.504;2022-12-07T11:13:52;22.52;;;7.82;;
5414;SDS011;2730;51.512;7.504;2022-12-07T11:16:30;10.40;;;6.72;;
5414;SDS011;2730;51.512;7.504;2022-12-07T11:19:13;12.30;;;6.00;;
5414;SDS011;2730;51.512;7.504;2022-12-07T11:21:52;16.95;;;6.70;;
5414;SDS011;2730;51.512;7.504;2022-12-07T11:24:23;7.53;;;5.15;;
5414;SDS011;2730;51.512;7.504;2022-12-07T11:26:59;10.68;;;5.78;;
5414;SDS011;2730;51.512;7.504;2022-12-07T11:29:42;14.88;;;7.18;;
5414;SDS011;2730;51.512;7.504;2022-12-07T11:32:17;15.25;;;5.60;;
5414;SDS011;2730;51.512;7.504;2022-12-07T11:34:55;13.52;;;6.22;;
5414;SDS011;2730;51.512;7.504;2022-12-07T11:37:32;11.93;;;5.85;;
5414;SDS011;2730;51.512;7.504;2022-12-07T11:40:01;15.10;;;7.07;;
5414;SDS011;2730;51.512;7.504;2022-12-07T11:42:33;14.15;;;6.68;;
5414;SDS011;2730;51.512;7.504;2022-12-07T11:45:10;19.73;;;6.13;;
5414;SDS011;2730;51.512;7.504;2022-12-07T11:47:43;20.10;;;5.05;;
5414;SDS011;2730;51.512;7.504;2022-12-07T11:50:21;18.67;;;6.22;;
5414;SDS011;2730;51.512;7.504;2022-12-07T11:52:53;10.02;;;5.18;;
5414;SDS011;2730;51.512;7.504;2022-12-07T11:55:24;13.95;;;6.15;;
5414;SDS011;2730;51.512;7.504;2022-12-07T11:57:58;10.32;;;6.20;;
5414;SDS011;2730;51.512;7.504;2022-12-07T12:00:30;17.02;;;6.45;;
5414;SDS011;2730;51.512;7.504;2022-12-07T12:02:59;11.20;;;5.70;;
5414;SDS011;2730;51.512;7.504;2022-12-07T12:05:30;12.48;;;6.20;;
5414;SDS011;2730;51.512;7.504;2022-12-07T12:08:00;12.88;;;5.25;;
5414;SDS011;2730;51.512;7.504;2022-12-07T12:10:38;20.23;;;6.38;;
5414;SDS011;2730;51.512;7.504;2022-12-07T12:13:31;12.07;;;6.88;;
5414;SDS011;2730;51.512;7.504;2022-12-07T12:16:27;14.27;;;5.03;;
5414;SDS011;2730;51.512;7.504;2022-12-07T12:19:14;21.55;;;5.60;;
5414;SDS011;2730;51.512;7.504;2022-12-07T12:21:53;10.35;;;5.20;;
5414;SDS011;2730;51.512;7.504;2022-12-07T12:24:24;8.80;;;4.43;;
5414;SDS011;2730;51.512;7.504;2022-12-07T12:26:56;9.75;;;4.80;;
5414;SDS011;2730;51.512;7.504;2022-12-07T12:29:28;5.78;;;3.60;;
5414;SDS011;2730;51.512;7.504;2022-12-07T12:32:07;7.38;;;4.15;;
5414;SDS011;2730;51.512;7.504;2022-12-07T12:34:56;11.98;;;4.57;;
5414;SDS011;2730;51.512;7.504;2022-12-07T12:37:39;7.78;;;3.97;;
5414;SDS011;2730;51.512;7.504;2022-12-07T12:43:26;11.05;;;4.50;;
5414;SDS011;2730;51.512;7.504;2022-12-07T12:55:20;16.05;;;6.10;;
5414;SDS011;2730;51.512;7.504;2022-12-07T13:04:13;6.28;;;3.50;;
5414;SDS011;2730;51.512;7.504;2022-12-07T13:06:46;9.70;;;3.00;;
5414;SDS011;2730;51.512;7.504;2022-12-07T13:09:17;9.88;;;3.25;;
5414;SDS011;2730;51.512;7.504;2022-12-07T13:11:48;7.60;;;3.92;;
5414;SDS011;2730;51.512;7.504;2022-12-07T13:20:43;7.72;;;2.95;;
5414;SDS011;2730;51.512;7.504;2022-12-07T13:23:18;7.72;;;3.33;;
5414;SDS011;2730;51.512;7.504;2022-12-07T13:25:49;10.50;;;3.67;;
5414;SDS011;2730;51.512;7.504;2022-12-07T13:28:21;12.75;;;3.42;;
5414;SDS011;2730;51.512;7.504;2022-12-07T13:30:56;4.13;;;2.55;;
5414;SDS011;2730;51.512;7.504;2022-12-07T13:33:43;9.15;;;2.35;;
5414;SDS011;2730;51.512;7.504;2022-12-07T13:36:12;6.55;;;3.10;;
5414;SDS011;2730;51.512;7.504;2022-12-07T13:38:50;3.97;;;2.58;;
5414;SDS011;2730;51.512;7.504;2022-12-07T13:41:19;6.10;;;2.65;;
5414;SDS011;2730;51.512;7.504;2022-12-07T13:43:49;4.10;;;2.90;;
5414;SDS011;2730;51.512;7.504;2022-12-07T13:46:18;13.13;;;3.17;;
5414;SDS011;2730;51.512;7.504;2022-12-07T13:48:49;8.35;;;2.38;;
5414;SDS011;2730;51.512;7.504;2022-12-07T13:51:17;7.40;;;2.15;;
5414;SDS011;2730;51.512;7.504;2022-12-07T13:53:46;6.72;;;1.70;;
5414;SDS011;2730;51.512;7.504;2022-12-07T13:56:16;5.60;;;1.95;;
5414;SDS011;2730;51.512;7.504;2022-12-07T13:58:42;6.43;;;2.50;;
5414;SDS011;2730;51.512;7.504;2022-12-07T14:01:10;11.60;;;2.50;;
5414;SDS011;2730;51.512;7.504;2022-12-07T14:03:38;6.93;;;2.35;;
5414;SDS011;2730;51.512;7.504;2022-12-07T14:06:16;9.68;;;2.58;;
5414;SDS011;2730;51.512;7.504;2022-12-07T14:08:47;11.10;;;2.72;;
5414;SDS011;2730;51.512;7.504;2022-12-07T14:11:16;7.63;;;2.70;;
5414;SDS011;2730;51.512;7.504;2022-12-07T14:13:50;5.47;;;2.78;;
5414;SDS011;2730;51.512;7.504;2022-12-07T14:16:24;9.07;;;2.75;;
5414;SDS011;2730;51.512;7.504;2022-12-07T14:18:53;7.72;;;1.98;;
5414;SDS011;2730;51.512;7.504;2022-12-07T14:21:21;5.13;;;3.00;;
5414;SDS011;2730;51.512;7.504;2022-12-07T14:24:02;7.90;;;2.83;;
5414;SDS011;2730;51.512;7.504;2022-12-07T14:26:39;9.98;;;3.90;;
5414;SDS011;2730;51.512;7.504;2022-12-07T14:29:18;8.48;;;2.95;;
5414;SDS011;2730;51.512;7.504;2022-12-07T14:31:56;12.68;;;3.15;;
5414;SDS011;2730;51.512;7.504;2022-12-07T14:34:23;6.35;;;3.10;;
5414;SDS011;2730;51.512;7.504;2022-12-07T14:36:50;9.25;;;3.35;;
5414;SDS011;2730;51.512;7.504;2022-12-07T14:39:17;6.30;;;3.20;;
5414;SDS011;2730;51.512;7.504;2022-12-07T14:41:46;7.57;;;2.78;;
5414;SDS011;2730;51.512;7.504;2022-12-07T14:44:19;12.02;;;3.42;;
5414;SDS011;2730;51.512;7.504;2022-12-07T14:46:47;18.67;;;4.00;;
5414;SDS011;2730;51.512;7.504;2022-12-07T14:49:15;3.47;;;2.83;;
5414;SDS011;2730;51.512;7.504;2022-12-07T14:51:43;6.00;;;2.80;;
5414;SDS011;2730;51.512;7.504;2022-12-07T14:54:14;5.00;;;3.03;;
5414;SDS011;2730;51.512;7.504;2022-12-07T14:56:43;5.28;;;3.42;;
5414;SDS011;2730;51.512;7.504;2022-12-07T14:59:14;11.70;;;2.30;;
5414;SDS011;2730;51.512;7.504;2022-12-07T15:01:41;5.70;;;2.67;;
5414;SDS011;2730;51.512;7.504;2022-12-07T15:04:08;11.63;;;3.35;;
5414;SDS011;2730;51.512;7.504;2022-12-07T15:06:35;6.18;;;2.70;;
5414;SDS011;2730;51.512;7.504;2022-12-07T15:09:02;5.40;;;2.60;;
5414;SDS011;2730;51.512;7.504;2022-12-07T15:11:29;3.67;;;2.80;;
5414;SDS011;2730;51.512;7.504;2022-12-07T15:13:58;3.95;;;3.30;;
5414;SDS011;2730;51.512;7.504;2022-12-07T15:16:34;7.32;;;2.45;;
5414;SDS011;2730;51.512;7.504;2022-12-07T15:19:02;3.97;;;2.58;;
5414;SDS011;2730;51.512;7.504;2022-12-07T15:21:29;4.50;;;2.45;;
5414;SDS011;2730;51.512;7.504;2022-12-07T15:23:56;2.63;;;2.40;;
5414;SDS011;2730;51.512;7.504;2022-12-07T15:26:22;7.25;;;2.83;;
5414;SDS011;2730;51.512;7.504;2022-12-07T15:28:49;9.43;;;3.22;;
5414;SDS011;2730;51.512;7.504;2022-12-07T15:31:19;4.68;;;3.03;;
5414;SDS011;2730;51.512;7.504;2022-12-07T15:33:46;3.85;;;2.83;;
5414;SDS011;2730;51.512;7.504;2022-12-07T15:36:15;10.82;;;3.03;;
5414;SDS011;2730;51.512;7.504;2022-12-07T15:38:46;6.13;;;3.30;;
5414;SDS011;2730;51.512;7.504;2022-12-07T15:41:13;7.28;;;3.40;;
5414;SDS011;2730;51.512;7.504;2022-12-07T15:43:40;8.90;;;3.90;;
5414;SDS011;2730;51.512;7.504;2022-12-07T15:46:29;7.93;;;3.38;;
5414;SDS011;2730;51.512;7.504;2022-12-07T15:48:57;9.15;;;3.90;;
5414;SDS011;2730;51.512;7.504;2022-12-07T15:51:23;12.48;;;3.83;;
5414;SDS011;2730;51.512;7.504;2022-12-07T15:53:51;10.68;;;4.32;;
5414;SDS011;2730;51.512;7.504;2022-12-07T15:56:17;6.30;;;3.78;;
5414;SDS011;2730;51.512;7.504;2022-12-07T15:58:44;9.65;;;4.30;;
5414;SDS011;2730;51.512;7.504;2022-12-07T16:01:12;9.63;;;3.97;;
5414;SDS011;2730;51.512;7.504;2022-12-07T16:03:40;11.70;;;5.85;;
5414;SDS011;2730;51.512;7.504;2022-12-07T16:06:08;4.90;;;3.92;;
5414;SDS011;2730;51.512;7.504;2022-12-07T16:08:34;13.73;;;4.20;;
5414;SDS011;2730;51.512;7.504;2022-12-07T16:11:04;7.25;;;4.47;;
5414;SDS011;2730;51.512;7.504;2022-12-07T16:13:31;7.20;;;4.95;;
5414;SDS011;2730;51.512;7.504;2022-12-07T16:16:02;8.77;;;3.85;;
5414;SDS011;2730;51.512;7.504;2022-12-07T16:18:29;9.20;;;5.00;;
5414;SDS011;2730;51.512;7.504;2022-12-07T16:20:58;17.13;;;5.05;;
5414;SDS011;2730;51.512;7.504;2022-12-07T16:23:25;9.30;;;4.72;;
5414;SDS011;2730;51.512;7.504;2022-12-07T16:25:52;10.30;;;5.88;;
5414;SDS011;2730;51.512;7.504;2022-12-07T16:28:19;12.88;;;6.07;;
5414;SDS011;2730;51.512;7.504;2022-12-07T16:30:46;8.70;;;5.15;;
5414;SDS011;2730;51.512;7.504;2022-12-07T16:33:13;16.40;;;5.95;;
5414;SDS011;2730;51.512;7.504;2022-12-07T16:35:40;14.15;;;5.15;;
5414;SDS011;2730;51.512;7.504;2022-12-07T16:38:08;10.25;;;5.10;;
5414;SDS011;2730;51.512;7.504;2022-12-07T16:40:35;14.93;;;5.60;;
5414;SDS011;2730;51.512;7.504;2022-12-07T16:43:01;9.10;;;4.90;;
5414;SDS011;2730;51.512;7.504;2022-12-07T16:45:28;16.48;;;5.32;;
5414;SDS011;2730;51.512;7.504;2022-12-07T16:47:55;8.55;;;4.75;;
5414;SDS011;2730;51.512;7.504;2022-12-07T16:50:22;10.73;;;4.97;;
5414;SDS011;2730;51.512;7.504;2022-12-07T16:52:49;14.15;;;6.15;;
5414;SDS011;2730;51.512;7.504;2022-12-07T16:55:17;9.25;;;5.65;;
5414;SDS011;2730;51.512;7.504;2022-12-07T16:57:44;8.30;;;4.85;;
5414;SDS011;2730;51.512;7.504;2022-12-07T17:00:11;13.70;;;5.25;;
5414;SDS011;2730;51.512;7.504;2022-12-07T17:02:38;11.25;;;4.57;;
5414;SDS011;2730;51.512;7.504;2022-12-07T17:05:05;11.55;;;4.80;;
5414;SDS011;2730;51.512;7.504;2022-12-07T17:07:33;11.75;;;5.65;;
5414;SDS011;2730;51.512;7.504;2022-12-07T17:10:00;9.88;;;5.00;;
5414;SDS011;2730;51.512;7.504;2022-12-07T17:12:28;8.27;;;4.75;;
5414;SDS011;2730;51.512;7.504;2022-12-07T17:14:55;11.65;;;5.60;;
5414;SDS011;2730;51.512;7.504;2022-12-07T17:17:39;10.73;;;5.40;;
5414;SDS011;2730;51.512;7.504;2022-12-07T17:20:06;9.02;;;4.63;;
5414;SDS011;2730;51.512;7.504;2022-12-07T17:22:33;19.95;;;7.47;;
5414;SDS011;2730;51.512;7.504;2022-12-07T17:25:00;11.13;;;5.57;;
5414;SDS011;2730;51.512;7.504;2022-12-07T17:27:28;11.15;;;5.20;;
5414;SDS011;2730;51.512;7.504;2022-12-07T17:29:55;10.35;;;4.70;;
5414;SDS011;2730;51.512;7.504;2022-12-07T17:32:23;12.48;;;5.90;;
5414;SDS011;2730;51.512;7.504;2022-12-07T17:34:49;14.15;;;5.00;;
5414;SDS011;2730;51.512;7.504;2022-12-07T17:37:16;10.85;;;5.55;;
5414;SDS011;2730;51.512;7.504;2022-12-07T17:39:43;11.00;;;4.75;;
5414;SDS011;2730;51.512;7.504;2022-12-07T17:42:10;11.25;;;4.65;;
5414;SDS011;2730;51.512;7.504;2022-12-07T17:45:05;18.17;;;6.82;;
5414;SDS011;2730;51.512;7.504;2022-12-07T17:47:34;15.07;;;5.97;;
5414;SDS011;2730;51.512;7.504;2022-12-07T17:50:01;19.88;;;5.30;;
5414;SDS011;2730;51.512;7.504;2022-12-07T17:52:29;12.23;;;5.03;;
5414;SDS011;2730;51.512;7.504;2022-12-07T17:55:13;7.25;;;5.07;;
5414;SDS011;2730;51.512;7.504;2022-12-07T17:57:40;9.27;;;4.60;;
5414;SDS011;2730;51.512;7.504;2022-12-07T18:00:09;15.70;;;5.28;;
5414;SDS011;2730;51.512;7.504;2022-12-07T18:02:36;8.48;;;5.25;;
5414;SDS011;2730;51.512;7.504;2022-12-07T18:05:03;8.80;;;4.40;;
5414;SDS011;2730;51.512;7.504;2022-12-07T18:07:30;12.50;;;4.60;;
5414;SDS011;2730;51.512;7.504;2022-12-07T18:09:57;11.50;;;4.70;;
5414;SDS011;2730;51.512;7.504;2022-12-07T18:12:24;12.27;;;5.40;;
5414;SDS011;2730;51.512;7.504;2022-12-07T18:14:51;11.45;;;5.60;;
5414;SDS011;2730;51.512;7.504;2022-12-07T18:17:20;9.70;;;5.45;;
5414;SDS011;2730;51.512;7.504;2022-12-07T18:19:47;8.30;;;5.65;;
5414;SDS011;2730;51.512;7.504;2022-12-07T18:22:13;5.80;;;4.40;;
5414;SDS011;2730;51.512;7.504;2022-12-07T18:24:40;16.73;;;5.07;;
5414;SDS011;2730;51.512;7.504;2022-12-07T18:27:07;5.70;;;3.65;;
5414;SDS011;2730;51.512;7.504;2022-12-07T18:29:34;5.90;;;3.33;;
5414;SDS011;2730;51.512;7.504;2022-12-07T18:32:01;5.95;;;2.67;;
5414;SDS011;2730;51.512;7.504;2022-12-07T18:34:30;6.75;;;3.42;;
5414;SDS011;2730;51.512;7.504;2022-12-07T18:36:57;7.55;;;3.50;;
5414;SDS011;2730;51.512;7.504;2022-12-07T18:39:24;12.02;;;3.75;;
5414;SDS011;2730;51.512;7.504;2022-12-07T18:41:51;4.65;;;3.28;;
5414;SDS011;2730;51.512;7.504;2022-12-07T18:44:17;10.27;;;4.10;;
5414;SDS011;2730;51.512;7.504;2022-12-07T18:46:44;18.38;;;4.78;;
5414;SDS011;2730;51.512;7.504;2022-12-07T18:49:11;6.90;;;3.85;;
5414;SDS011;2730;51.512;7.504;2022-12-07T18:51:40;11.82;;;4.95;;
5414;SDS011;2730;51.512;7.504;2022-12-07T18:54:07;5.53;;;4.38;;
5414;SDS011;2730;51.512;7.504;2022-12-07T18:56:34;9.82;;;4.22;;
5414;SDS011;2730;51.512;7.504;2022-12-07T18:59:02;11.30;;;4.70;;
5414;SDS011;2730;51.512;7.504;2022-12-07T19:01:48;7.47;;;4.75;;
5414;SDS011;2730;51.512;7.504;2022-12-07T19:04:16;15.23;;;6.70;;
5414;SDS011;2730;51.512;7.504;2022-12-07T19:06:45;8.73;;;5.20;;
5414;SDS011;2730;51.512;7.504;2022-12-07T19:09:13;15.73;;;6.63;;
5414;SDS011;2730;51.512;7.504;2022-12-07T19:11:40;9.90;;;6.15;;
5414;SDS011;2730;51.512;7.504;2022-12-07T19:14:20;8.45;;;5.38;;
5414;SDS011;2730;51.512;7.504;2022-12-07T19:16:49;9.75;;;6.25;;
5414;SDS011;2730;51.512;7.504;2022-12-07T19:19:18;13.32;;;7.57;;
5414;SDS011;2730;51.512;7.504;2022-12-07T19:21:48;10.32;;;6.60;;
5414;SDS011;2730;51.512;7.504;2022-12-07T19:24:15;11.93;;;6.63;;
5414;SDS011;2730;51.512;7.504;2022-12-07T19:26:42;11.88;;;6.43;;
5414;SDS011;2730;51.512;7.504;2022-12-07T19:29:09;19.58;;;6.97;;
5414;SDS011;2730;51.512;7.504;2022-12-07T19:31:36;9.40;;;6.60;;
5414;SDS011;2730;51.512;7.504;2022-12-07T19:34:06;16.48;;;8.85;;
5414;SDS011;2730;51.512;7.504;2022-12-07T19:36:34;16.17;;;7.53;;
5414;SDS011;2730;51.512;7.504;2022-12-07T19:39:02;14.68;;;7.30;;
5414;SDS011;2730;51.512;7.504;2022-12-07T19:41:29;14.15;;;7.90;;
5414;SDS011;2730;51.512;7.504;2022-12-07T19:43:59;18.00;;;7.72;;
5414;SDS011;2730;51.512;7.504;2022-12-07T19:46:26;17.17;;;8.45;;
5414;SDS011;2730;51.512;7.504;2022-12-07T19:48:53;9.73;;;6.78;;
5414;SDS011;2730;51.512;7.504;2022-12-07T19:51:20;17.98;;;6.90;;
5414;SDS011;2730;51.512;7.504;2022-12-07T19:53:47;17.17;;;7.82;;
5414;SDS011;2730;51.512;7.504;2022-12-07T19:56:16;16.30;;;7.88;;
5414;SDS011;2730;51.512;7.504;2022-12-07T19:58:44;11.43;;;7.00;;
5414;SDS011;2730;51.512;7.504;2022-12-07T20:01:11;16.08;;;4.95;;
5414;SDS011;2730;51.512;7.504;2022-12-07T20:03:38;7.57;;;5.25;;
5414;SDS011;2730;51.512;7.504;2022-12-07T20:06:06;10.70;;;5.35;;
5414;SDS011;2730;51.512;7.504;2022-12-07T20:08:34;11.85;;;6.15;;
5414;SDS011;2730;51.512;7.504;2022-12-07T20:11:01;14.05;;;6.95;;
5414;SDS011;2730;51.512;7.504;2022-12-07T20:13:50;15.88;;;8.70;;
5414;SDS011;2730;51.512;7.504;2022-12-07T20:16:16;14.18;;;8.75;;
5414;SDS011;2730;51.512;7.504;2022-12-07T20:18:44;19.13;;;10.25;;
5414;SDS011;2730;51.512;7.504;2022-12-07T20:21:11;18.63;;;9.40;;
5414;SDS011;2730;51.512;7.504;2022-12-07T20:23:38;16.63;;;10.80;;
5414;SDS011;2730;51.512;7.504;2022-12-07T20:26:06;20.73;;;9.10;;
5414;SDS011;2730;51.512;7.504;2022-12-07T20:28:35;19.42;;;10.27;;
5414;SDS011;2730;51.512;7.504;2022-12-07T20:31:04;18.45;;;9.70;;
5414;SDS011;2730;51.512;7.504;2022-12-07T20:33:31;16.00;;;10.30;;
5414;SDS011;2730;51.512;7.504;2022-12-07T20:35:58;17.95;;;9.90;;
5414;SDS011;2730;51.512;7.504;2022-12-07T20:38:25;17.15;;;9.25;;
5414;SDS011;2730;51.512;7.504;2022-12-07T20:40:53;15.30;;;9.15;;
5414;SDS011;2730;51.512;7.504;2022-12-07T20:43:23;19.90;;;10.43;;
5414;SDS011;2730;51.512;7.504;2022-12-07T20:45:50;24.88;;;11.32;;
5414;SDS011;2730;51.512;7.504;2022-12-07T20:48:18;15.75;;;9.68;;
5414;SDS011;2730;51.512;7.504;2022-12-07T20:50:45;21.27;;;10.80;;
5414;SDS011;2730;51.512;7.504;2022-12-07T20:53:12;18.65;;;10.40;;
5414;SDS011;2730;51.512;7.504;2022-12-07T20:55:39;28.13;;;11.52;;
5414;SDS011;2730;51.512;7.504;2022-12-07T20:58:06;23.90;;;9.82;;
5414;SDS011;2730;51.512;7.504;2022-12-07T21:00:33;22.10;;;12.00;;
5414;SDS011;2730;51.512;7.504;2022-12-07T21:03:00;23.75;;;12.05;;
5414;SDS011;2730;51.512;7.504;2022-12-07T21:05:29;23.80;;;11.68;;
5414;SDS011;2730;51.512;7.504;2022-12-07T21:07:56;25.08;;;13.20;;
5414;SDS011;2730;51.512;7.504;2022-12-07T21:10:23;25.20;;;13.52;;
5414;SDS011;2730;51.512;7.504;2022-12-07T21:12:49;24.45;;;13.35;;